Peshawar Weather



Peshawar's Current Weather

Temprature 24.08o haze

haze

Rain: 0 %

Min Temprature24.08o
Max Temprature24.08o
Humidity46
Wind Speed4.12 m/h
Sun Rise05:07:04
Sun Set19:14:15
Current Time: 24-May-2022 07:22:24
Lat/Lon: 34.008, 71.5785




Peshawar's Geo Location



Peshawar's Weather Forecast

Time Overall Temp Min Temp Max Temp Humidity Wind Speed Rain
24-May-2022 (Tue)
08:00:00 clear sky 24.080 24.080 26.350 46 2.1 m/h 0 %
11:00:00 clear sky 26.260 26.260 30.610 39 1.04 m/h 0 %
14:00:00 clear sky 30.840 30.840 34.220 27 1.46 m/h 0 %
17:00:00 clear sky 35.390 35.390 35.390 16 2.69 m/h 0 %
20:00:00 clear sky 32.770 32.770 32.770 17 2.53 m/h 0 %
23:00:00 clear sky 30.580 30.580 30.580 20 0.83 m/h 0 %
25-May-2022 (Wed)
02:00:00 clear sky 28.050 28.050 28.050 24 2.06 m/h 0 %
05:00:00 clear sky 25.940 25.940 25.940 29 1.7 m/h 0 %
08:00:00 clear sky 29.280 29.280 29.280 24 1.61 m/h 0 %
11:00:00 clear sky 34.170 34.170 34.170 18 0.61 m/h 0 %
14:00:00 clear sky 37.940 37.940 37.940 14 1.12 m/h 0 %
17:00:00 clear sky 39.240 39.240 39.240 13 1.52 m/h 0 %
20:00:00 clear sky 36.010 36.010 36.010 16 1.92 m/h 0 %
23:00:00 clear sky 33.380 33.380 33.380 17 1.17 m/h 0 %
26-May-2022 (Thu)
02:00:00 clear sky 30.940 30.940 30.940 20 1.01 m/h 0 %
05:00:00 clear sky 28.790 28.790 28.790 23 1.67 m/h 0 %
08:00:00 clear sky 32.380 32.380 32.380 19 1 m/h 0 %
11:00:00 clear sky 37.660 37.660 37.660 14 1.02 m/h 0 %
14:00:00 clear sky 41.930 41.930 41.930 7 1.06 m/h 0 %
17:00:00 clear sky 43.060 43.060 43.060 6 1.95 m/h 0 %
20:00:00 clear sky 38.610 38.610 38.610 10 2.22 m/h 0 %
23:00:00 clear sky 35.270 35.270 35.270 12 1.54 m/h 0 %
27-May-2022 (Fri)
02:00:00 clear sky 31.760 31.760 31.760 16 2.26 m/h 0 %
05:00:00 clear sky 30.380 30.380 30.380 20 0.09 m/h 0 %
08:00:00 clear sky 34.120 34.120 34.120 17 1.17 m/h 0 %
11:00:00 clear sky 39.330 39.330 39.330 12 0.93 m/h 0 %
14:00:00 clear sky 43.060 43.060 43.060 9 0.57 m/h 0 %
17:00:00 few clouds 44.230 44.230 44.230 8 1.2 m/h 0 %
20:00:00 broken clouds 39.860 39.860 39.860 12 0.92 m/h 0 %
23:00:00 broken clouds 38.160 38.160 38.160 13 1.76 m/h 0 %
28-May-2022 (Sat)
02:00:00 broken clouds 33.900 33.900 33.900 16 4.9 m/h 0 %
05:00:00 scattered clouds 32.110 32.110 32.110 18 3.68 m/h 0 %
08:00:00 scattered clouds 35.150 35.150 35.150 15 4.3 m/h 0 %
11:00:00 few clouds 39.460 39.460 39.460 12 7.05 m/h 0 %
14:00:00 clear sky 42.620 42.620 42.620 10 5.97 m/h 0 %
17:00:00 scattered clouds 42.650 42.650 42.650 9 5.75 m/h 0 %
20:00:00 few clouds 37.210 37.210 37.210 15 2.14 m/h 0 %
23:00:00 scattered clouds 34.360 34.360 34.360 19 3.21 m/h 0 %
29-May-2022 (Sun)
02:00:00 overcast clouds 33.240 33.240 33.240 19 0.97 m/h 0 %
05:00:00 overcast clouds 31.610 31.610 31.610 18 1.87 m/h 0 %

Famous Cities (61)